Flight Track Log - Related Links

Times and Time Zones

All times are in EDT time to prevent confusion due to time zone crossing. See the WAV260 flight status page for this flight to view local times or setup timezone preferences in your user account.

Time Position Orientation Groundspeed Altitude Reporting Facility
EDT Latitude Longitude Course Direction KTS MPH feet Rate Location/Type
Thu 09:39:38 PM 64.9167 -147.6833 31° Northeast 140 161 3,800  Level Anchorage Center
Thu 09:40:39 PM 64.9500 -147.6333 32° Northeast 140 161 4,500 694 Climbing Anchorage Center
Thu 09:41:39 PM 64.9833 -147.5833 32° Northeast 150 173 5,200 750 Climbing Anchorage Center
Thu 09:42:00 PM 65.0428 -147.5413 31° Northeast  Level Estimated
Thu 09:42:39 PM 65.0167 -147.5167 40° Northeast 140 161 6,000  Level Anchorage Center
Thu 09:43:00 PM 65.0805 -147.4876 31° Northeast  Level FlightAware Approximate
Thu 09:43:40 PM 65.0500 -147.4833 23° Northeast 140 161 6,700  Level Anchorage Center
Thu 09:44:00 PM 65.1182 -147.4338 31° Northeast  Level FlightAware Approximate
Thu 09:44:40 PM 65.0833 -147.4167 40° Northeast 150 173 7,500  Level Anchorage Center
Thu 09:45:00 PM 65.1559 -147.3799 31° Northeast  Level FlightAware Approximate
Thu 09:45:40 PM 65.1333 -147.3833 16° North 150 173 8,100  Level Anchorage Center
Thu 09:46:41 PM 65.1667 -147.3167 40° Northeast 160 184 8,700 446 Climbing Anchorage Center
Thu 09:47:41 PM 65.2000 -147.2667 32° Northeast 170 196 9,000  Climbing Anchorage Center
Thu 09:48:41 PM 65.2500 -147.2000 29° Northeast 190 219 8,700 -248 Descending Anchorage Center
Thu 09:49:42 PM 65.3000 -147.1333 29° Northeast 190 219 8,500  Descending Anchorage Center
Thu 09:50:42 PM 65.3333 -147.0667 40° Northeast 180 207 8,700 248 Climbing Anchorage Center
Thu 09:51:43 PM 65.3833 -147.0167 23° Northeast 180 207 9,000  Climbing Anchorage Center
Thu 09:52:43 PM 65.4333 -146.9500 29° Northeast 190 219 8,700  Descending Anchorage Center
Thu 09:53:43 PM 65.4667 -146.8833 40° Northeast 180 207 9,000 149 Climbing Anchorage Center
Thu 09:54:44 PM 65.5167 -146.8167 29° Northeast 180 207 9,000  Level Anchorage Center
Thu 09:55:44 PM 65.5500 -146.7500 40° Northeast 180 207 9,000 -150 Level Anchorage Center
Thu 09:56:44 PM 65.5833 -146.6667 46° Northeast 190 219 8,700 -198 Descending Anchorage Center
Thu 09:57:45 PM 65.6333 -146.6000 29° Northeast 180 207 8,600  Descending Anchorage Center
Thu 09:58:45 PM 65.6667 -146.5167 46° Northeast 180 207 8,700 198 Climbing Anchorage Center
Thu 09:59:46 PM 65.7000 -146.4333 46° Northeast 180 207 9,000 149 Climbing Anchorage Center
Thu 10:00:46 PM 65.7500 -146.3500 34° Northeast 190 219 9,000  Level Anchorage Center
Thu 10:01:46 PM 65.7833 -146.2833 39° Northeast 180 207 9,000 -100 Level Anchorage Center
Thu 10:02:46 PM 65.8333 -146.2167 29° Northeast 180 207 8,800 -397 Descending Anchorage Center
Thu 10:03:47 PM 65.8667 -146.1333 46° Northeast 200 230 8,200 -595 Descending Anchorage Center
Thu 10:04:47 PM 65.9167 -146.0500 34° Northeast 200 230 7,600 -645 Descending Anchorage Center
Thu 10:05:48 PM 65.9500 -145.9667 46° Northeast 200 230 6,900 -595 Descending Anchorage Center
Thu 10:06:48 PM 66.0000 -145.8833 34° Northeast 200 230 6,400 -400 Descending Anchorage Center
Thu 10:07:48 PM 66.0500 -145.8167 28° Northeast 180 207 6,100 -446 Descending Anchorage Center
Thu 10:08:49 PM 66.0833 -145.7333 45° Northeast 180 207 5,500 -595 Descending Anchorage Center
Thu 10:09:49 PM 66.1167 -145.6500 45° Northeast 170 196 4,900 -600 Descending Anchorage Center
Thu 10:10:49 PM 66.1667 -145.5667 34° Northeast 190 219 4,300 -595 Descending Anchorage Center
Thu 10:11:50 PM 66.2000 -145.5000 39° Northeast 180 207 3,700 -595 Descending Anchorage Center
Thu 10:12:50 PM 66.2333 -145.4167 45° Northeast 180 207 3,100 -600 Descending Anchorage Center
Thu 10:13:50 PM 66.2833 -145.3500 28° Northeast 180 207 2,500 -450 Descending Anchorage Center
Thu 10:14:50 PM 66.3167 -145.2667 45° Northeast 160 184 2,200 -149 Descending Anchorage Center
Thu 10:15:51 PM 66.3500 -145.2000 39° Northeast 150 173 2,200 -50 Level Anchorage Center
Thu 10:16:51 PM 66.3833 -145.1333 39° Northeast 140 161 2,100 -150 Descending Anchorage Center
Thu 10:17:51 PM 66.4167 -145.0667 39° Northeast 120 138 1,900 -99 Descending Anchorage Center
Thu 10:18:52 PM 66.4500 -145.0167 31° Northeast 130 150 1,900  Level Anchorage Center
Thu 10:19:52 PM 66.4667 -144.9667 50° Northeast 150 173 1,900  Level Anchorage Center
Thu 10:20:52 PM 66.5000 -144.9000 39° Northeast 130 150 1,900  Level Anchorage Center
Thu 10:21:53 PM 66.5333 -144.8500 31° Northeast 120 138 1,900  Level Anchorage Center
Thu 10:22:53 PM 66.5500 -144.7833 58° Northeast 130 150 1,900 100 Level Anchorage Center
Thu 10:23:53 PM 66.5833 -144.7333 31° Northeast 120 138 2,100  Climbing Anchorage Center
Thu 10:24:54 PM 66.6167 -144.7667 338° Northwest 150 173 1,900 -99 Descending Anchorage Center
Thu 10:25:54 PM 66.6500 -144.8167 329° Northwest 140 161 1,900 50 Level Anchorage Center
Thu 10:26:54 PM 66.6333 -144.9167 247° West 150 173 2,000 50 Climbing Anchorage Center
Thu 10:27:55 PM 66.6167 -145.0000 243° Southwest 150 173 2,000  Level Anchorage Center
Thu 10:30:00 PM 66.5945 -145.1037 242° Southwest  Level FlightAware Approximate
Thu 10:37:00 PM 66.5667 -145.2333 270° West  Level FlightAware Approximate

Login

Don't have an account? Register now (free) for customized features, flight alerts, and more!